createdAt,value
2019-02-06T00:00:36.871Z,22.70
2019-02-06T00:01:36.868Z,22.70
2019-02-06T00:02:36.910Z,21.60
2019-02-06T00:03:36.842Z,22.40
2019-02-06T00:04:36.832Z,22.60
2019-02-06T00:05:36.817Z,22.80
2019-02-06T00:06:36.808Z,22.50
2019-02-06T00:07:36.795Z,22.30
2019-02-06T00:08:36.829Z,21.80
2019-02-06T00:09:36.773Z,22.90
2019-02-06T00:10:36.764Z,21.60
2019-02-06T00:11:36.747Z,22.10
2019-02-06T00:12:36.768Z,21.70
2019-02-06T00:13:36.759Z,22.30
2019-02-06T00:14:36.718Z,21.20
2019-02-06T00:15:36.723Z,21.90
2019-02-06T00:16:36.705Z,21.70
2019-02-06T00:17:36.694Z,21.60
2019-02-06T00:18:36.705Z,21.60
2019-02-06T00:19:36.667Z,21.40
2019-02-06T00:20:36.657Z,21.40
2019-02-06T00:21:36.641Z,21.20
2019-02-06T00:22:36.653Z,21.20
2019-02-06T00:23:36.645Z,21.70
2019-02-06T00:24:36.603Z,21.20
2019-02-06T00:25:36.599Z,21.50
2019-02-06T00:26:36.602Z,21.30
2019-02-06T00:27:36.587Z,21.50
2019-02-06T00:28:36.564Z,21.90
2019-02-06T00:29:36.594Z,21.40
2019-02-06T00:30:36.539Z,21.40
2019-02-06T00:31:36.559Z,21.60
2019-02-06T00:32:36.547Z,21.30
2019-02-06T00:33:36.530Z,20.90
2019-02-06T00:34:36.519Z,21.20
2019-02-06T00:35:36.484Z,21.30
2019-02-06T00:36:36.471Z,21.70
2019-02-06T00:37:36.496Z,22.10
2019-02-06T00:38:36.455Z,21.80
2019-02-06T00:39:36.477Z,21.60
2019-02-06T00:40:36.430Z,21.70
2019-02-06T00:41:36.422Z,21.50
2019-02-06T00:42:36.416Z,21.60
2019-02-06T00:43:36.398Z,21.00
2019-02-06T00:44:36.403Z,21.00
2019-02-06T00:45:36.402Z,21.10
2019-02-06T00:46:36.362Z,21.40
2019-02-06T00:47:36.361Z,21.30
2019-02-06T00:48:36.352Z,20.40
2019-02-06T00:49:36.333Z,20.20
2019-02-06T00:50:36.388Z,20.90
2019-02-06T00:51:36.307Z,21.00
2019-02-06T00:52:36.307Z,21.00
2019-02-06T00:53:36.294Z,20.80
2019-02-06T00:54:36.283Z,20.70
2019-02-06T00:55:36.297Z,20.30
2019-02-06T00:56:36.256Z,21.40
2019-02-06T00:57:36.248Z,20.90
2019-02-06T00:58:36.230Z,21.00
2019-02-06T00:59:36.283Z,20.40
2019-02-06T01:00:36.263Z,20.80
2019-02-06T01:01:36.220Z,20.90
2019-02-06T01:02:36.184Z,21.30
2019-02-06T01:03:36.183Z,21.30
2019-02-06T01:04:36.168Z,20.20
2019-02-06T01:05:38.339Z,21.00
2019-02-06T01:06:36.171Z,20.30
2019-02-06T01:07:36.147Z,20.60
2019-02-06T01:08:36.125Z,20.10
2019-02-06T01:09:36.127Z,20.80
2019-02-06T01:10:36.104Z,20.30
2019-02-06T01:11:36.140Z,20.60
2019-02-06T01:12:36.088Z,19.90
2019-02-06T01:13:36.084Z,20.30
2019-02-06T01:14:36.054Z,21.20
2019-02-06T01:15:36.058Z,20.90
2019-02-06T01:16:36.042Z,21.20
2019-02-06T01:17:36.054Z,20.50
2019-02-06T01:18:36.008Z,20.50
2019-02-06T01:19:36.019Z,21.30
2019-02-06T01:20:35.987Z,20.90
2019-02-06T01:21:35.985Z,21.00
2019-02-06T01:22:36.059Z,21.30
2019-02-06T01:23:35.954Z,21.40
2019-02-06T01:24:35.957Z,21.00
2019-02-06T01:25:36.703Z,21.70
2019-02-06T01:26:35.920Z,21.20
2019-02-06T01:27:35.972Z,21.10
2019-02-06T01:28:35.903Z,20.70
2019-02-06T01:29:35.916Z,21.30
2019-02-06T01:30:35.878Z,21.40
2019-02-06T01:31:35.868Z,21.20
2019-02-06T01:32:35.854Z,21.30
2019-02-06T01:33:35.875Z,20.70
2019-02-06T01:34:35.847Z,21.70
2019-02-06T01:35:35.841Z,21.20
2019-02-06T01:36:35.819Z,21.90
2019-02-06T01:37:35.799Z,21.20
2019-02-06T01:38:35.822Z,21.50
2019-02-06T01:39:35.796Z,21.50
2019-02-06T01:40:35.767Z,21.00
2019-02-06T01:41:35.759Z,21.60
2019-02-06T01:42:35.741Z,21.30
2019-02-06T01:43:35.782Z,21.30
2019-02-06T01:44:35.725Z,21.20
2019-02-06T01:45:35.718Z,21.80
2019-02-06T01:46:35.699Z,21.20
2019-02-06T01:47:35.693Z,21.20
2019-02-06T01:48:35.730Z,22.40
2019-02-06T01:49:35.691Z,22.00
2019-02-06T01:50:35.659Z,21.20
2019-02-06T01:51:35.660Z,22.20
2019-02-06T01:52:35.640Z,21.80
2019-02-06T01:53:35.650Z,22.50
2019-02-06T01:54:35.650Z,21.60
2019-02-06T01:55:35.599Z,21.80
2019-02-06T01:56:35.589Z,21.70
2019-02-06T01:57:35.579Z,21.70
2019-02-06T01:58:35.573Z,21.80
2019-02-06T01:59:35.577Z,22.10
2019-02-06T02:00:35.552Z,21.80
2019-02-06T02:01:35.531Z,22.50
2019-02-06T02:02:35.527Z,22.50
2019-02-06T02:03:35.509Z,22.00
2019-02-06T02:04:35.550Z,22.20
2019-02-06T02:05:37.825Z,21.70
2019-02-06T02:06:35.486Z,22.10
2019-02-06T02:07:35.472Z,22.70
2019-02-06T02:08:35.457Z,22.50
2019-02-06T02:09:35.473Z,22.50
2019-02-06T02:10:35.491Z,23.50
2019-02-06T02:11:35.600Z,22.40
2019-02-06T02:12:35.416Z,22.40
2019-02-06T02:13:35.399Z,23.00
2019-02-06T02:14:35.404Z,22.90
2019-02-06T02:15:35.411Z,22.40
2019-02-06T02:16:35.366Z,23.20
2019-02-06T02:17:35.382Z,22.70
2019-02-06T02:18:35.358Z,23.10
2019-02-06T02:19:35.337Z,22.90
2019-02-06T02:20:35.369Z,22.90
2019-02-06T02:21:35.313Z,23.00
2019-02-06T02:22:35.316Z,23.10
2019-02-06T02:23:35.296Z,22.70
2019-02-06T02:24:35.278Z,23.30
2019-02-06T02:25:35.268Z,22.70
2019-02-06T02:26:35.278Z,23.20
2019-02-06T02:27:35.244Z,23.10
2019-02-06T02:28:35.239Z,22.70
2019-02-06T02:29:35.236Z,23.50
2019-02-06T02:30:35.223Z,23.80
2019-02-06T02:31:35.224Z,24.10
2019-02-06T02:32:35.208Z,24.10
2019-02-06T02:33:35.177Z,23.70
2019-02-06T02:34:35.169Z,23.90
2019-02-06T02:35:35.161Z,23.90
2019-02-06T02:36:35.177Z,23.40
2019-02-06T02:37:35.133Z,24.20
2019-02-06T02:38:35.129Z,23.50
2019-02-06T02:39:35.121Z,23.80
2019-02-06T02:40:35.107Z,24.40
2019-02-06T02:41:35.132Z,23.50
2019-02-06T02:42:35.654Z,24.30
2019-02-06T02:43:35.077Z,23.60
2019-02-06T02:44:35.062Z,23.80
2019-02-06T02:45:35.043Z,23.00
2019-02-06T02:46:35.062Z,24.00
2019-02-06T02:47:35.068Z,24.50
2019-02-06T02:48:35.016Z,24.00
2019-02-06T02:49:35.004Z,24.40
2019-02-06T02:50:35.169Z,24.60
2019-02-06T02:51:34.987Z,24.10
2019-02-06T02:52:35.018Z,24.70
2019-02-06T02:53:34.991Z,25.00
2019-02-06T02:54:34.968Z,25.00
2019-02-06T02:55:34.932Z,24.70
2019-02-06T02:56:34.932Z,25.10
2019-02-06T02:57:34.961Z,24.90
2019-02-06T02:58:34.910Z,24.70
2019-02-06T02:59:34.904Z,25.20
2019-02-06T03:00:34.885Z,25.00
2019-02-06T03:01:34.871Z,25.30
2019-02-06T03:02:34.884Z,25.10
2019-02-06T03:03:34.874Z,25.40
2019-02-06T03:04:34.842Z,25.30
2019-02-06T03:05:34.830Z,25.20
2019-02-06T03:06:34.817Z,25.00
2019-02-06T03:07:34.811Z,24.70
2019-02-06T03:08:34.833Z,25.90
2019-02-06T03:09:34.781Z,24.60
2019-02-06T03:10:34.776Z,25.60
2019-02-06T03:11:34.761Z,26.20
2019-02-06T03:12:34.752Z,26.30
2019-02-06T03:13:34.742Z,26.30
2019-02-06T03:14:34.761Z,26.90
2019-02-06T03:15:34.729Z,25.90
2019-02-06T03:16:34.704Z,26.50
2019-02-06T03:17:34.716Z,25.60
2019-02-06T03:18:34.684Z,26.10
2019-02-06T03:19:34.693Z,25.90
2019-02-06T03:20:34.669Z,26.10
2019-02-06T03:21:34.658Z,25.70
2019-02-06T03:22:34.643Z,26.10
2019-02-06T03:23:34.633Z,26.10
2019-02-06T03:24:34.658Z,25.90
2019-02-06T03:25:34.608Z,26.00
2019-02-06T03:26:34.599Z,25.40
2019-02-06T03:27:34.590Z,26.30
2019-02-06T03:28:34.575Z,26.10
2019-02-06T03:29:34.597Z,26.40
2019-02-06T03:30:34.582Z,26.00
2019-02-06T03:31:34.591Z,26.30
2019-02-06T03:32:34.546Z,26.00
2019-02-06T03:33:34.527Z,26.80
2019-02-06T03:34:34.510Z,26.80
2019-02-06T03:35:34.550Z,27.00
2019-02-06T03:36:40.371Z,26.70
2019-02-06T03:37:35.481Z,27.20
2019-02-06T03:38:34.470Z,26.30
2019-02-06T03:39:34.492Z,27.10
2019-02-06T03:40:34.490Z,27.20
2019-02-06T03:41:34.435Z,26.10
2019-02-06T03:42:34.434Z,26.50
2019-02-06T03:43:34.453Z,26.80
2019-02-06T03:44:34.404Z,26.80
2019-02-06T03:45:34.412Z,26.20
2019-02-06T03:46:34.408Z,26.00
2019-02-06T03:47:34.374Z,26.90
2019-02-06T03:48:34.371Z,26.90
2019-02-06T03:49:34.370Z,25.80
2019-02-06T03:50:34.383Z,26.40
2019-02-06T03:51:34.411Z,26.70
2019-02-06T03:52:34.335Z,26.20
2019-02-06T03:53:34.307Z,27.20
2019-02-06T03:54:34.313Z,27.00
2019-02-06T03:55:34.290Z,27.40
2019-02-06T03:56:34.319Z,27.30
2019-02-06T03:57:34.298Z,26.70
2019-02-06T03:58:34.261Z,27.30
2019-02-06T03:59:34.267Z,27.50
2019-02-06T04:00:34.243Z,26.80
2019-02-06T04:01:34.229Z,26.90
2019-02-06T04:02:34.235Z,27.30
2019-02-06T04:03:34.213Z,28.00
2019-02-06T04:04:34.187Z,27.60
2019-02-06T04:05:34.186Z,27.80
2019-02-06T04:06:34.185Z,27.30
2019-02-06T04:07:34.238Z,26.80
2019-02-06T04:08:34.182Z,26.90
2019-02-06T04:09:34.138Z,27.10
2019-02-06T04:10:34.142Z,26.90
2019-02-06T04:11:34.123Z,27.40
2019-02-06T04:12:34.168Z,27.50
2019-02-06T04:13:34.102Z,27.50
2019-02-06T04:14:34.089Z,26.80
2019-02-06T04:15:34.078Z,27.50
2019-02-06T04:16:34.065Z,27.60
2019-02-06T04:17:34.078Z,26.70
2019-02-06T04:18:34.043Z,27.10
2019-02-06T04:19:34.041Z,26.80
2019-02-06T04:20:34.022Z,27.50
2019-02-06T04:21:34.011Z,28.10
2019-02-06T04:22:34.042Z,27.20
2019-02-06T04:23:34.024Z,27.10
2019-02-06T04:24:33.995Z,27.50
2019-02-06T04:25:33.976Z,28.00
2019-02-06T04:26:33.964Z,27.40
2019-02-06T04:27:33.945Z,27.20
2019-02-06T04:28:33.972Z,27.10
2019-02-06T04:29:33.926Z,27.10
2019-02-06T04:30:33.918Z,27.20
2019-02-06T04:31:33.903Z,27.60
2019-02-06T04:32:33.893Z,27.30
2019-02-06T04:33:33.903Z,27.70
2019-02-06T04:34:33.872Z,27.10
2019-02-06T04:35:33.865Z,26.80
2019-02-06T04:36:33.855Z,27.90
2019-02-06T04:37:33.845Z,27.70
2019-02-06T04:38:33.862Z,27.00
2019-02-06T04:39:33.814Z,27.50
2019-02-06T04:40:33.838Z,26.70
2019-02-06T04:41:33.797Z,27.40
2019-02-06T04:42:33.790Z,27.20
2019-02-06T04:43:33.777Z,27.60
2019-02-06T04:44:33.775Z,27.70
2019-02-06T04:45:33.779Z,27.40
2019-02-06T04:46:33.756Z,27.60
2019-02-06T04:47:33.737Z,27.60
2019-02-06T04:48:33.722Z,27.70
2019-02-06T04:49:33.741Z,27.90
2019-02-06T04:50:33.709Z,28.50
2019-02-06T04:51:33.700Z,28.00
2019-02-06T04:52:33.680Z,28.20
2019-02-06T04:53:33.673Z,28.40
2019-02-06T04:54:33.696Z,26.60
2019-02-06T04:55:33.659Z,27.50
2019-02-06T04:56:33.664Z,27.40
2019-02-06T04:57:33.630Z,27.70
2019-02-06T04:58:33.611Z,27.70
2019-02-06T04:59:33.647Z,28.00
2019-02-06T05:00:33.637Z,28.00
2019-02-06T05:01:33.581Z,28.00
2019-02-06T05:02:33.578Z,28.00
2019-02-06T05:03:33.564Z,28.40
2019-02-06T05:04:33.567Z,28.50
2019-02-06T05:05:33.570Z,27.90
2019-02-06T05:06:33.531Z,28.00
2019-02-06T05:07:33.530Z,29.40
2019-02-06T05:08:33.513Z,28.50
2019-02-06T05:09:33.501Z,28.60
2019-02-06T05:10:33.511Z,29.20
2019-02-06T05:11:33.488Z,28.30
2019-02-06T05:12:33.479Z,28.10
2019-02-06T05:13:33.454Z,28.40
2019-02-06T05:14:33.441Z,28.00
2019-02-06T05:15:33.465Z,28.50
2019-02-06T05:16:33.441Z,29.00
2019-02-06T05:17:33.428Z,28.50
2019-02-06T05:18:33.437Z,29.10
2019-02-06T05:19:33.388Z,29.20
2019-02-06T05:20:33.381Z,29.30
2019-02-06T05:21:33.408Z,28.00
2019-02-06T05:22:33.378Z,28.30
2019-02-06T05:23:33.342Z,28.80
2019-02-06T05:24:33.336Z,28.10
2019-02-06T05:25:33.323Z,28.10
2019-02-06T05:26:33.368Z,28.80
2019-02-06T05:27:33.307Z,29.30
2019-02-06T05:28:33.305Z,28.40
2019-02-06T05:29:33.312Z,28.90
2019-02-06T05:30:33.328Z,28.60
2019-02-06T05:31:33.377Z,28.80
2019-02-06T05:32:33.251Z,29.00
2019-02-06T05:33:33.241Z,28.70
2019-02-06T05:34:33.249Z,28.90
2019-02-06T05:35:33.235Z,29.10
2019-02-06T05:36:33.206Z,29.20
2019-02-06T05:37:33.238Z,28.50
2019-02-06T05:38:33.209Z,28.10
2019-02-06T05:39:33.180Z,29.30
2019-02-06T05:40:33.169Z,28.80
2019-02-06T05:41:33.159Z,29.10
2019-02-06T05:42:33.176Z,28.00
2019-02-06T05:43:33.145Z,29.40
2019-02-06T05:44:33.117Z,29.00
2019-02-06T05:45:33.230Z,28.50
2019-02-06T05:46:33.099Z,29.20
2019-02-06T05:47:33.126Z,29.60
2019-02-06T05:48:33.081Z,29.80
2019-02-06T05:49:33.073Z,28.70
2019-02-06T05:50:33.059Z,29.20
2019-02-06T05:51:33.053Z,29.40
2019-02-06T05:52:33.067Z,29.30
2019-02-06T05:53:33.053Z,28.60
2019-02-06T05:54:33.019Z,28.70
2019-02-06T05:55:33.002Z,29.20
2019-02-06T05:56:32.987Z,29.10
2019-02-06T05:57:32.987Z,29.30
2019-02-06T05:58:32.998Z,28.50
2019-02-06T05:59:32.961Z,28.70
2019-02-06T06:00:32.952Z,27.60
2019-02-06T06:01:32.943Z,29.80
2019-02-06T06:02:32.929Z,28.10
2019-02-06T06:03:33.098Z,28.60
2019-02-06T06:04:32.909Z,28.40
2019-02-06T06:05:32.894Z,29.40
2019-02-06T06:06:32.886Z,28.80
2019-02-06T06:07:44.748Z,29.50
2019-02-06T06:08:33.885Z,28.50
2019-02-06T06:09:32.874Z,28.10
2019-02-06T06:10:32.845Z,28.50
2019-02-06T06:11:32.833Z,29.20
2019-02-06T06:12:32.826Z,28.80
2019-02-06T06:13:32.826Z,28.30
2019-02-06T06:14:32.822Z,28.60
2019-02-06T06:15:32.791Z,28.60
2019-02-06T06:16:32.776Z,27.60
2019-02-06T06:17:32.766Z,28.40
2019-02-06T06:18:32.758Z,28.30
2019-02-06T06:19:32.777Z,28.30
2019-02-06T06:20:32.733Z,28.70
2019-02-06T06:21:32.728Z,28.30
2019-02-06T06:22:32.723Z,27.40
2019-02-06T06:23:32.702Z,27.60
2019-02-06T06:24:32.710Z,28.00
2019-02-06T06:25:32.725Z,27.70
2019-02-06T06:26:32.668Z,28.10
2019-02-06T06:27:32.675Z,28.20
2019-02-06T06:28:32.643Z,27.50
2019-02-06T06:29:32.632Z,27.20
2019-02-06T06:30:32.664Z,27.80
2019-02-06T06:31:32.613Z,28.20
2019-02-06T06:32:32.613Z,27.30
2019-02-06T06:33:32.591Z,28.80
2019-02-06T06:34:32.576Z,27.30
2019-02-06T06:35:32.611Z,28.50
2019-02-06T06:36:32.563Z,27.60
2019-02-06T06:37:32.548Z,28.40
2019-02-06T06:38:32.533Z,28.20
2019-02-06T06:39:32.536Z,27.70
2019-02-06T06:40:32.512Z,28.30
2019-02-06T06:41:32.532Z,27.70
2019-02-06T06:42:32.498Z,28.00
2019-02-06T06:43:32.483Z,27.30
2019-02-06T06:44:32.479Z,27.30
2019-02-06T06:45:32.476Z,27.90
2019-02-06T06:46:32.476Z,27.80
2019-02-06T06:47:32.443Z,27.80
2019-02-06T06:48:32.445Z,27.40
2019-02-06T06:49:32.414Z,26.80
2019-02-06T06:50:32.460Z,27.50
2019-02-06T06:51:32.438Z,27.30
2019-02-06T06:52:32.381Z,26.90
2019-02-06T06:53:32.374Z,27.30
2019-02-06T06:54:32.378Z,27.30
2019-02-06T06:55:35.050Z,27.20
2019-02-06T06:56:32.351Z,27.00
2019-02-06T06:57:32.368Z,26.80
2019-02-06T06:58:32.324Z,27.00
2019-02-06T06:59:32.361Z,26.70
2019-02-06T07:00:32.295Z,27.20
2019-02-06T07:01:32.338Z,27.30
2019-02-06T07:02:32.439Z,27.60
2019-02-06T07:03:32.382Z,27.00
2019-02-06T07:04:32.254Z,27.30
2019-02-06T07:05:32.260Z,27.20
2019-02-06T07:06:32.239Z,27.00
2019-02-06T07:07:32.258Z,27.30
2019-02-06T07:08:32.217Z,27.80
2019-02-06T07:09:32.198Z,27.50
2019-02-06T07:10:32.196Z,26.50
2019-02-06T07:11:32.177Z,26.20
2019-02-06T07:12:32.167Z,27.00
2019-02-06T07:13:32.179Z,27.10
2019-02-06T07:14:32.149Z,26.20
2019-02-06T07:15:32.137Z,26.30
2019-02-06T07:16:41.934Z,26.40
2019-02-06T07:17:32.118Z,26.60
2019-02-06T07:18:40.088Z,25.20
2019-02-06T07:19:32.106Z,26.30
2019-02-06T07:20:32.083Z,25.70
2019-02-06T07:21:32.071Z,25.80
2019-02-06T07:22:32.073Z,25.10
2019-02-06T07:23:32.046Z,25.50
2019-02-06T07:24:32.038Z,25.50
2019-02-06T07:25:32.022Z,24.60
2019-02-06T07:26:32.016Z,25.20
2019-02-06T07:27:32.022Z,24.70
2019-02-06T07:28:31.997Z,24.80
2019-02-06T07:29:31.989Z,24.90
2019-02-06T07:30:31.978Z,24.10
2019-02-06T07:31:31.964Z,24.20
2019-02-06T07:32:32.073Z,24.20
2019-02-06T07:33:31.975Z,25.00
2019-02-06T07:34:31.939Z,24.80
2019-02-06T07:35:31.924Z,23.90
2019-02-06T07:36:31.916Z,24.50
2019-02-06T07:37:31.899Z,23.60
2019-02-06T07:38:31.954Z,24.10
2019-02-06T07:39:31.878Z,23.40
2019-02-06T07:40:31.867Z,24.10
2019-02-06T07:41:31.876Z,23.70
2019-02-06T07:42:31.841Z,23.10
2019-02-06T07:43:31.888Z,23.80
2019-02-06T07:44:31.834Z,22.70
2019-02-06T07:45:31.810Z,22.10
2019-02-06T07:46:31.809Z,22.50
2019-02-06T07:47:31.798Z,22.60
2019-02-06T07:48:31.778Z,23.10
2019-02-06T07:49:31.812Z,23.00
2019-02-06T07:50:31.772Z,22.20
2019-02-06T07:51:31.744Z,22.40
2019-02-06T07:52:31.737Z,22.80
2019-02-06T07:53:31.730Z,23.40
2019-02-06T07:54:31.735Z,21.50
2019-02-06T07:55:31.708Z,22.50
2019-02-06T07:56:31.700Z,22.10
2019-02-06T07:57:31.722Z,21.70
2019-02-06T07:58:31.668Z,22.20
2019-02-06T07:59:31.705Z,22.30
2019-02-06T08:00:31.652Z,22.20
2019-02-06T08:01:31.644Z,22.00
2019-02-06T08:02:31.666Z,22.50
2019-02-06T08:03:31.626Z,22.40
2019-02-06T08:04:31.628Z,22.00
2019-02-06T08:05:31.633Z,21.90
2019-02-06T08:06:31.582Z,21.90
2019-02-06T08:07:31.581Z,20.60
2019-02-06T08:08:36.060Z,21.00
2019-02-06T08:09:31.570Z,21.30
2019-02-06T08:10:31.572Z,21.40
2019-02-06T08:11:31.534Z,21.30
2019-02-06T08:12:31.525Z,21.80
2019-02-06T08:13:31.513Z,21.80
2019-02-06T08:14:31.498Z,21.20
2019-02-06T08:15:31.543Z,22.50
2019-02-06T08:16:31.493Z,21.50
2019-02-06T08:17:31.466Z,21.90
2019-02-06T08:18:31.457Z,20.70
2019-02-06T08:19:31.499Z,21.80
2019-02-06T08:20:31.433Z,21.30
2019-02-06T08:21:31.432Z,20.70
2019-02-06T08:22:31.418Z,20.10
2019-02-06T08:23:31.404Z,19.80
2019-02-06T08:24:31.392Z,20.60
2019-02-06T08:25:31.407Z,20.40
2019-02-06T08:26:31.374Z,21.10
2019-02-06T08:27:31.366Z,20.80
2019-02-06T08:28:31.359Z,20.80
2019-02-06T08:29:31.358Z,20.80
2019-02-06T08:30:31.346Z,20.20
2019-02-06T08:31:32.001Z,19.40
2019-02-06T08:32:31.310Z,20.10
2019-02-06T08:33:31.302Z,20.90
2019-02-06T08:34:31.294Z,19.30
2019-02-06T08:35:31.305Z,20.20
2019-02-06T08:36:31.264Z,19.30
2019-02-06T08:37:31.249Z,19.20
2019-02-06T08:38:31.243Z,19.10
2019-02-06T08:39:31.237Z,19.50
2019-02-06T08:40:31.251Z,19.50
2019-02-06T08:41:31.250Z,19.20
2019-02-06T08:42:31.213Z,19.80
2019-02-06T08:43:31.198Z,19.00
2019-02-06T08:44:31.176Z,19.30
2019-02-06T08:45:31.175Z,19.70
2019-02-06T08:46:31.183Z,19.10
2019-02-06T08:47:31.143Z,18.60
2019-02-06T08:48:31.138Z,19.30
2019-02-06T08:49:31.137Z,19.80
2019-02-06T08:50:31.116Z,19.70
2019-02-06T08:51:31.133Z,19.50
2019-02-06T08:52:31.105Z,19.10
2019-02-06T08:53:31.083Z,19.50
2019-02-06T08:54:31.075Z,20.00
2019-02-06T08:55:31.069Z,19.40
2019-02-06T08:56:31.075Z,19.30
2019-02-06T08:57:31.055Z,20.00
2019-02-06T08:58:31.025Z,19.10
2019-02-06T08:59:31.015Z,19.70
2019-02-06T09:00:31.014Z,19.70
2019-02-06T09:01:31.531Z,19.30
2019-02-06T09:02:30.985Z,19.30
2019-02-06T09:03:30.980Z,20.20
2019-02-06T09:04:30.979Z,20.30
2019-02-06T09:05:30.957Z,19.70
2019-02-06T09:06:30.966Z,19.10
2019-02-06T09:07:30.955Z,19.50
2019-02-06T09:08:30.933Z,19.90
2019-02-06T09:09:30.923Z,20.00
2019-02-06T09:10:31.029Z,19.90
2019-02-06T09:11:30.894Z,19.30
2019-02-06T09:12:30.901Z,19.70
2019-02-06T09:13:30.897Z,19.80
2019-02-06T09:14:30.862Z,19.40
2019-02-06T09:15:30.871Z,20.10
2019-02-06T09:16:30.855Z,20.50
2019-02-06T09:17:30.844Z,19.90
2019-02-06T09:18:30.820Z,20.70
2019-02-06T09:19:30.812Z,20.40
2019-02-06T09:20:30.794Z,20.40
2019-02-06T09:21:30.789Z,20.60
2019-02-06T09:22:30.822Z,19.30
2019-02-06T09:23:30.761Z,20.80
2019-02-06T09:24:30.769Z,20.20
2019-02-06T09:25:30.747Z,20.80
2019-02-06T09:26:35.482Z,20.30
2019-02-06T09:27:31.773Z,20.80
2019-02-06T09:28:30.735Z,20.10
2019-02-06T09:29:30.705Z,19.60
2019-02-06T09:30:30.687Z,20.10
2019-02-06T09:31:30.678Z,20.50
2019-02-06T09:32:30.673Z,20.50
2019-02-06T09:33:30.687Z,20.40
2019-02-06T09:34:30.649Z,20.20
2019-02-06T09:35:30.680Z,20.60
2019-02-06T09:36:30.627Z,20.60
2019-02-06T09:37:30.614Z,19.90
2019-02-06T09:38:30.609Z,20.60
2019-02-06T09:39:30.605Z,20.30
2019-02-06T09:40:30.611Z,20.50
2019-02-06T09:41:30.590Z,20.50
2019-02-06T09:42:30.560Z,20.50
2019-02-06T09:43:30.552Z,20.60
2019-02-06T09:44:30.541Z,20.50
2019-02-06T09:45:30.541Z,19.80
2019-02-06T09:46:30.552Z,20.20
2019-02-06T09:47:30.505Z,20.40
2019-02-06T09:48:30.519Z,20.20
2019-02-06T09:49:30.479Z,20.40
2019-02-06T09:50:30.472Z,20.20
2019-02-06T09:51:30.499Z,20.70
2019-02-06T09:52:30.449Z,20.10
2019-02-06T09:53:30.444Z,19.90
2019-02-06T09:54:30.429Z,20.40
2019-02-06T09:55:30.436Z,20.50
2019-02-06T09:56:30.466Z,19.70
2019-02-06T09:57:30.418Z,20.70
2019-02-06T09:58:30.377Z,20.90
2019-02-06T09:59:30.372Z,20.30
2019-02-06T10:00:30.361Z,19.80
2019-02-06T10:01:30.353Z,20.30
2019-02-06T10:02:30.362Z,20.10
2019-02-06T10:03:30.328Z,20.00
2019-02-06T10:04:30.313Z,20.50
2019-02-06T10:05:30.315Z,20.90
2019-02-06T10:06:30.304Z,20.20
2019-02-06T10:07:30.321Z,20.40
2019-02-06T10:08:30.274Z,20.50
2019-02-06T10:09:30.261Z,20.40
2019-02-06T10:10:30.249Z,20.20
2019-02-06T10:11:30.247Z,20.70
2019-02-06T10:12:30.225Z,19.90
2019-02-06T10:13:30.236Z,20.60
2019-02-06T10:14:30.203Z,20.40
2019-02-06T10:15:30.203Z,20.50
2019-02-06T10:16:30.214Z,20.50
2019-02-06T10:17:30.174Z,19.80
2019-02-06T10:18:30.166Z,20.10
2019-02-06T10:19:30.187Z,20.80
2019-02-06T10:20:30.155Z,21.00
2019-02-06T10:21:30.127Z,20.50
2019-02-06T10:22:30.511Z,20.40
2019-02-06T10:23:30.109Z,20.00
2019-02-06T10:24:30.105Z,20.40
2019-02-06T10:25:30.082Z,20.90
2019-02-06T10:26:30.075Z,22.00
2019-02-06T10:27:30.075Z,20.40
2019-02-06T10:28:30.071Z,21.10
2019-02-06T10:29:30.054Z,20.60
2019-02-06T10:30:30.053Z,21.40
2019-02-06T10:31:32.820Z,20.10
2019-02-06T10:32:30.010Z,21.30
2019-02-06T10:33:30.030Z,20.10
2019-02-06T10:34:30.000Z,20.80
2019-02-06T10:35:29.977Z,20.20
2019-02-06T10:36:29.967Z,21.20
2019-02-06T10:37:29.977Z,20.70
2019-02-06T10:38:29.966Z,21.40
2019-02-06T10:39:34.546Z,21.10
2019-02-06T10:40:29.941Z,21.20
2019-02-06T10:41:29.909Z,20.10
2019-02-06T10:42:29.921Z,20.40
2019-02-06T10:43:32.658Z,21.30
2019-02-06T10:44:30.917Z,20.50
2019-02-06T10:45:29.867Z,21.30
2019-02-06T10:46:29.860Z,21.00
2019-02-06T10:47:29.863Z,21.30
2019-02-06T10:48:29.841Z,20.90
2019-02-06T10:49:29.828Z,21.80
2019-02-06T10:50:29.840Z,21.80
2019-02-06T10:51:29.817Z,21.70
2019-02-06T10:52:29.794Z,20.80
2019-02-06T10:53:29.810Z,21.00
2019-02-06T10:54:29.812Z,20.90
2019-02-06T10:55:29.815Z,21.00
2019-02-06T10:56:29.763Z,20.90
2019-02-06T10:57:29.737Z,20.60
2019-02-06T10:58:29.732Z,20.90
2019-02-06T10:59:29.759Z,20.80
2019-02-06T11:00:30.037Z,20.50
2019-02-06T11:01:29.729Z,20.90
2019-02-06T11:02:29.749Z,20.70
2019-02-06T11:03:29.677Z,20.70
2019-02-06T11:04:29.663Z,21.00
2019-02-06T11:05:29.652Z,21.20
2019-02-06T11:06:29.679Z,21.10
2019-02-06T11:07:29.640Z,21.10
2019-02-06T11:08:29.624Z,20.40
2019-02-06T11:09:29.622Z,20.60
2019-02-06T11:10:29.598Z,20.80
2019-02-06T11:11:29.728Z,20.30
2019-02-06T11:12:29.599Z,20.70
2019-02-06T11:13:29.570Z,21.20
2019-02-06T11:14:29.562Z,20.50
2019-02-06T11:15:29.543Z,21.50
2019-02-06T11:16:29.559Z,21.50
2019-02-06T11:17:29.561Z,21.20
2019-02-06T11:18:29.507Z,20.90
2019-02-06T11:19:29.530Z,20.40
2019-02-06T11:20:29.493Z,21.30
2019-02-06T11:21:29.484Z,21.50
2019-02-06T11:22:29.472Z,21.10
2019-02-06T11:23:29.473Z,20.70
2019-02-06T11:24:29.455Z,20.30
2019-02-06T11:25:29.434Z,21.60
2019-02-06T11:26:29.452Z,21.40
2019-02-06T11:27:29.425Z,20.90
2019-02-06T11:28:29.464Z,21.20
2019-02-06T11:29:29.392Z,21.00
2019-02-06T11:30:29.442Z,21.40
2019-02-06T11:31:29.414Z,21.60
2019-02-06T11:32:29.374Z,20.50
2019-02-06T11:33:29.354Z,21.20
2019-02-06T11:34:29.353Z,20.90
2019-02-06T11:35:29.379Z,20.40
2019-02-06T11:36:29.321Z,20.30
2019-02-06T11:37:29.374Z,20.90
2019-02-06T11:38:29.313Z,20.80
2019-02-06T11:39:29.315Z,20.80
2019-02-06T11:40:29.313Z,21.00
2019-02-06T11:41:29.350Z,20.30
2019-02-06T11:42:29.271Z,21.30
2019-02-06T11:43:32.045Z,20.80
2019-02-06T11:44:29.278Z,21.30
2019-02-06T11:45:29.236Z,21.00
2019-02-06T11:46:29.377Z,20.80
2019-02-06T11:47:29.260Z,20.40
2019-02-06T11:48:29.227Z,20.30
2019-02-06T11:49:29.188Z,20.30
2019-02-06T11:50:29.285Z,21.40
2019-02-06T11:51:29.179Z,20.80
2019-02-06T11:52:29.146Z,19.90
2019-02-06T11:53:29.176Z,20.50
2019-02-06T11:54:29.120Z,20.60
2019-02-06T11:55:29.200Z,19.50
2019-02-06T11:56:29.179Z,20.20
2019-02-06T11:57:29.095Z,19.30
2019-02-06T11:58:29.077Z,20.20
2019-02-06T11:59:29.068Z,20.00
2019-02-06T12:00:29.087Z,20.20
2019-02-06T12:01:29.080Z,19.60
2019-02-06T12:02:37.025Z,20.30
2019-02-06T12:03:30.090Z,19.80
2019-02-06T12:04:29.020Z,20.00
2019-02-06T12:05:29.000Z,20.00
2019-02-06T12:06:29.011Z,19.90
2019-02-06T12:07:28.995Z,20.60
2019-02-06T12:08:31.208Z,20.10
2019-02-06T12:09:28.979Z,20.20
2019-02-06T12:10:28.995Z,20.30
2019-02-06T12:11:28.980Z,19.80
2019-02-06T12:12:28.962Z,20.10
2019-02-06T12:13:28.921Z,20.00
2019-02-06T12:14:28.909Z,20.10
2019-02-06T12:15:28.908Z,20.10
2019-02-06T12:16:28.997Z,20.20
2019-02-06T12:17:28.875Z,20.20
2019-02-06T12:18:28.901Z,20.60
2019-02-06T12:19:28.863Z,20.10
2019-02-06T12:20:28.870Z,19.90
2019-02-06T12:21:28.872Z,19.40
2019-02-06T12:22:28.822Z,19.70
2019-02-06T12:23:32.369Z,20.10
2019-02-06T12:24:28.815Z,19.80
2019-02-06T12:25:28.786Z,19.50
2019-02-06T12:26:28.777Z,19.50
2019-02-06T12:27:28.781Z,18.80
2019-02-06T12:28:28.751Z,19.10
2019-02-06T12:29:28.757Z,19.60
2019-02-06T12:30:28.736Z,19.40
2019-02-06T12:31:28.725Z,19.80
2019-02-06T12:32:28.713Z,19.40
2019-02-06T12:33:28.719Z,19.50
2019-02-06T12:34:28.721Z,19.80
2019-02-06T12:35:28.676Z,19.40
2019-02-06T12:36:28.720Z,18.90
2019-02-06T12:37:28.661Z,18.20
2019-02-06T12:38:28.648Z,18.40
2019-02-06T12:39:28.661Z,18.80
2019-02-06T12:40:28.628Z,18.70
2019-02-06T12:41:28.616Z,18.70
2019-02-06T12:42:28.649Z,18.30
2019-02-06T12:43:28.603Z,18.60
2019-02-06T12:44:28.598Z,18.70
2019-02-06T12:45:28.616Z,18.80
2019-02-06T12:46:28.562Z,18.40
2019-02-06T12:47:28.562Z,18.90
2019-02-06T12:48:28.537Z,18.30
2019-02-06T12:49:28.539Z,18.80
2019-02-06T12:50:28.562Z,18.40
2019-02-06T12:51:28.514Z,19.00
2019-02-06T12:52:28.495Z,18.10